sensor_id;sensor_type;location;lat;lon;timestamp;P1;durP1;ratioP1;P2;durP2;ratioP2
71696;SDS011;59528;59.082;37.926;2022-12-10T00:01:45;12.27;;;7.03;;
71696;SDS011;59528;59.082;37.926;2022-12-10T00:04:11;14.67;;;6.70;;
71696;SDS011;59528;59.082;37.926;2022-12-10T00:06:37;11.90;;;7.23;;
71696;SDS011;59528;59.082;37.926;2022-12-10T00:09:04;11.53;;;6.07;;
71696;SDS011;59528;59.082;37.926;2022-12-10T00:11:30;11.87;;;6.80;;
71696;SDS011;59528;59.082;37.926;2022-12-10T00:13:56;9.70;;;6.20;;
71696;SDS011;59528;59.082;37.926;2022-12-10T00:16:23;11.30;;;6.47;;
71696;SDS011;59528;59.082;37.926;2022-12-10T00:18:52;11.53;;;7.17;;
71696;SDS011;59528;59.082;37.926;2022-12-10T00:21:19;11.93;;;7.13;;
71696;SDS011;59528;59.082;37.926;2022-12-10T00:23:45;11.50;;;6.77;;
71696;SDS011;59528;59.082;37.926;2022-12-10T00:26:12;12.60;;;6.70;;
71696;SDS011;59528;59.082;37.926;2022-12-10T00:28:38;12.33;;;6.57;;
71696;SDS011;59528;59.082;37.926;2022-12-10T00:31:05;12.07;;;6.43;;
71696;SDS011;59528;59.082;37.926;2022-12-10T00:33:31;12.47;;;6.23;;
71696;SDS011;59528;59.082;37.926;2022-12-10T00:36:00;11.97;;;6.63;;
71696;SDS011;59528;59.082;37.926;2022-12-10T00:38:26;12.67;;;6.90;;
71696;SDS011;59528;59.082;37.926;2022-12-10T00:40:51;12.20;;;6.43;;
71696;SDS011;59528;59.082;37.926;2022-12-10T00:43:17;10.83;;;6.67;;
71696;SDS011;59528;59.082;37.926;2022-12-10T00:45:43;15.27;;;6.97;;
71696;SDS011;59528;59.082;37.926;2022-12-10T00:48:08;12.40;;;6.70;;
71696;SDS011;59528;59.082;37.926;2022-12-10T00:50:34;14.17;;;6.63;;
71696;SDS011;59528;59.082;37.926;2022-12-10T00:52:59;11.00;;;6.47;;
71696;SDS011;59528;59.082;37.926;2022-12-10T00:55:25;11.30;;;5.97;;
71696;SDS011;59528;59.082;37.926;2022-12-10T00:57:51;11.03;;;6.40;;
71696;SDS011;59528;59.082;37.926;2022-12-10T01:00:16;13.23;;;7.13;;
71696;SDS011;59528;59.082;37.926;2022-12-10T01:02:42;10.87;;;5.97;;
71696;SDS011;59528;59.082;37.926;2022-12-10T01:05:08;11.17;;;6.57;;
71696;SDS011;59528;59.082;37.926;2022-12-10T01:07:33;10.20;;;6.73;;
71696;SDS011;59528;59.082;37.926;2022-12-10T01:10:00;13.60;;;6.37;;
71696;SDS011;59528;59.082;37.926;2022-12-10T01:12:25;11.83;;;6.30;;
71696;SDS011;59528;59.082;37.926;2022-12-10T01:14:51;11.37;;;6.03;;
71696;SDS011;59528;59.082;37.926;2022-12-10T01:17:16;12.13;;;6.03;;
71696;SDS011;59528;59.082;37.926;2022-12-10T01:19:43;10.57;;;5.97;;
71696;SDS011;59528;59.082;37.926;2022-12-10T01:22:09;13.73;;;6.93;;
71696;SDS011;59528;59.082;37.926;2022-12-10T01:24:35;9.73;;;6.20;;
71696;SDS011;59528;59.082;37.926;2022-12-10T01:27:02;11.07;;;6.10;;
71696;SDS011;59528;59.082;37.926;2022-12-10T01:29:27;10.57;;;5.67;;
71696;SDS011;59528;59.082;37.926;2022-12-10T01:31:54;11.83;;;6.10;;
71696;SDS011;59528;59.082;37.926;2022-12-10T01:34:20;10.87;;;5.53;;
71696;SDS011;59528;59.082;37.926;2022-12-10T01:36:48;11.27;;;6.67;;
71696;SDS011;59528;59.082;37.926;2022-12-10T01:39:15;9.80;;;6.53;;
71696;SDS011;59528;59.082;37.926;2022-12-10T01:42:02;11.93;;;7.20;;
71696;SDS011;59528;59.082;37.926;2022-12-10T01:46:53;10.03;;;6.20;;
71696;SDS011;59528;59.082;37.926;2022-12-10T01:49:37;9.37;;;6.50;;
71696;SDS011;59528;59.082;37.926;2022-12-10T01:52:05;11.53;;;6.23;;
71696;SDS011;59528;59.082;37.926;2022-12-10T01:54:32;12.90;;;6.93;;
71696;SDS011;59528;59.082;37.926;2022-12-10T01:57:02;10.27;;;6.30;;
71696;SDS011;59528;59.082;37.926;2022-12-10T01:59:30;12.83;;;6.53;;
71696;SDS011;59528;59.082;37.926;2022-12-10T02:02:14;11.23;;;6.67;;
71696;SDS011;59528;59.082;37.926;2022-12-10T02:05:17;10.50;;;6.30;;
71696;SDS011;59528;59.082;37.926;2022-12-10T02:07:54;12.57;;;5.97;;
71696;SDS011;59528;59.082;37.926;2022-12-10T02:15:27;12.07;;;6.57;;
71696;SDS011;59528;59.082;37.926;2022-12-10T02:17:58;10.17;;;5.57;;
71696;SDS011;59528;59.082;37.926;2022-12-10T02:22:54;12.63;;;6.33;;
71696;SDS011;59528;59.082;37.926;2022-12-10T02:25:22;11.60;;;6.13;;
71696;SDS011;59528;59.082;37.926;2022-12-10T02:30:18;10.23;;;6.83;;
71696;SDS011;59528;59.082;37.926;2022-12-10T02:32:44;12.57;;;6.53;;
71696;SDS011;59528;59.082;37.926;2022-12-10T02:35:23;13.70;;;6.40;;
71696;SDS011;59528;59.082;37.926;2022-12-10T02:37:55;10.97;;;6.10;;
71696;SDS011;59528;59.082;37.926;2022-12-10T02:40:23;12.67;;;6.40;;
71696;SDS011;59528;59.082;37.926;2022-12-10T02:42:52;12.93;;;6.57;;
71696;SDS011;59528;59.082;37.926;2022-12-10T02:45:20;12.17;;;6.50;;
71696;SDS011;59528;59.082;37.926;2022-12-10T02:47:48;10.57;;;6.10;;
71696;SDS011;59528;59.082;37.926;2022-12-10T02:50:15;12.33;;;6.70;;
71696;SDS011;59528;59.082;37.926;2022-12-10T02:52:41;9.67;;;6.10;;
71696;SDS011;59528;59.082;37.926;2022-12-10T02:55:10;11.07;;;6.53;;
71696;SDS011;59528;59.082;37.926;2022-12-10T03:00:22;13.13;;;7.13;;
71696;SDS011;59528;59.082;37.926;2022-12-10T03:08:22;12.77;;;6.63;;
71696;SDS011;59528;59.082;37.926;2022-12-10T03:10:55;12.50;;;6.90;;
71696;SDS011;59528;59.082;37.926;2022-12-10T03:13:27;11.80;;;6.57;;
71696;SDS011;59528;59.082;37.926;2022-12-10T03:15:54;10.43;;;6.33;;
71696;SDS011;59528;59.082;37.926;2022-12-10T03:18:20;13.23;;;6.90;;
71696;SDS011;59528;59.082;37.926;2022-12-10T03:20:48;11.33;;;6.03;;
71696;SDS011;59528;59.082;37.926;2022-12-10T03:23:16;11.73;;;5.97;;
71696;SDS011;59528;59.082;37.926;2022-12-10T03:25:43;12.53;;;6.80;;
71696;SDS011;59528;59.082;37.926;2022-12-10T03:28:09;11.17;;;6.67;;
71696;SDS011;59528;59.082;37.926;2022-12-10T03:30:35;15.03;;;7.33;;
71696;SDS011;59528;59.082;37.926;2022-12-10T03:33:02;11.27;;;6.50;;
71696;SDS011;59528;59.082;37.926;2022-12-10T03:35:28;11.67;;;6.67;;
71696;SDS011;59528;59.082;37.926;2022-12-10T03:37:53;13.27;;;6.70;;
71696;SDS011;59528;59.082;37.926;2022-12-10T03:40:21;14.50;;;6.80;;
71696;SDS011;59528;59.082;37.926;2022-12-10T03:42:47;11.03;;;6.17;;
71696;SDS011;59528;59.082;37.926;2022-12-10T03:45:12;12.63;;;6.30;;
71696;SDS011;59528;59.082;37.926;2022-12-10T03:47:39;11.67;;;6.50;;
71696;SDS011;59528;59.082;37.926;2022-12-10T03:50:05;12.23;;;6.93;;
71696;SDS011;59528;59.082;37.926;2022-12-10T03:52:30;10.30;;;5.87;;
71696;SDS011;59528;59.082;37.926;2022-12-10T03:54:56;12.70;;;6.83;;
71696;SDS011;59528;59.082;37.926;2022-12-10T03:57:21;10.43;;;6.60;;
71696;SDS011;59528;59.082;37.926;2022-12-10T03:59:47;13.97;;;6.60;;
71696;SDS011;59528;59.082;37.926;2022-12-10T04:02:12;12.90;;;6.60;;
71696;SDS011;59528;59.082;37.926;2022-12-10T04:04:38;12.47;;;6.20;;
71696;SDS011;59528;59.082;37.926;2022-12-10T04:07:04;13.33;;;6.30;;
71696;SDS011;59528;59.082;37.926;2022-12-10T04:09:29;12.17;;;6.20;;
71696;SDS011;59528;59.082;37.926;2022-12-10T04:11:56;9.43;;;5.97;;
71696;SDS011;59528;59.082;37.926;2022-12-10T04:14:22;12.10;;;6.50;;
71696;SDS011;59528;59.082;37.926;2022-12-10T04:17:06;11.57;;;6.57;;
71696;SDS011;59528;59.082;37.926;2022-12-10T04:19:31;11.60;;;6.83;;
71696;SDS011;59528;59.082;37.926;2022-12-10T04:21:57;13.27;;;6.60;;
71696;SDS011;59528;59.082;37.926;2022-12-10T04:24:41;11.13;;;6.33;;
71696;SDS011;59528;59.082;37.926;2022-12-10T04:27:26;10.83;;;5.80;;
71696;SDS011;59528;59.082;37.926;2022-12-10T04:29:52;11.07;;;6.20;;
71696;SDS011;59528;59.082;37.926;2022-12-10T04:32:18;10.70;;;6.37;;
71696;SDS011;59528;59.082;37.926;2022-12-10T04:34:45;11.23;;;6.63;;
71696;SDS011;59528;59.082;37.926;2022-12-10T04:37:11;11.27;;;6.57;;
71696;SDS011;59528;59.082;37.926;2022-12-10T04:39:37;12.83;;;7.03;;
71696;SDS011;59528;59.082;37.926;2022-12-10T04:42:02;10.47;;;5.93;;
71696;SDS011;59528;59.082;37.926;2022-12-10T04:44:28;12.13;;;6.10;;
71696;SDS011;59528;59.082;37.926;2022-12-10T04:46:54;12.80;;;6.60;;
71696;SDS011;59528;59.082;37.926;2022-12-10T04:49:19;13.23;;;6.63;;
71696;SDS011;59528;59.082;37.926;2022-12-10T04:51:48;12.03;;;6.13;;
71696;SDS011;59528;59.082;37.926;2022-12-10T04:54:14;12.83;;;6.70;;
71696;SDS011;59528;59.082;37.926;2022-12-10T04:56:39;14.23;;;7.10;;
71696;SDS011;59528;59.082;37.926;2022-12-10T04:59:05;13.93;;;6.33;;
71696;SDS011;59528;59.082;37.926;2022-12-10T05:01:31;13.00;;;6.53;;
71696;SDS011;59528;59.082;37.926;2022-12-10T05:04:00;13.40;;;6.87;;
71696;SDS011;59528;59.082;37.926;2022-12-10T05:06:27;12.77;;;7.10;;
71696;SDS011;59528;59.082;37.926;2022-12-10T05:08:53;13.10;;;6.90;;
71696;SDS011;59528;59.082;37.926;2022-12-10T05:11:19;12.10;;;6.40;;
71696;SDS011;59528;59.082;37.926;2022-12-10T05:13:46;11.17;;;6.70;;
71696;SDS011;59528;59.082;37.926;2022-12-10T05:16:12;10.77;;;6.57;;
71696;SDS011;59528;59.082;37.926;2022-12-10T05:18:39;12.57;;;6.87;;
71696;SDS011;59528;59.082;37.926;2022-12-10T05:21:05;10.47;;;6.63;;
71696;SDS011;59528;59.082;37.926;2022-12-10T05:23:31;12.63;;;6.77;;
71696;SDS011;59528;59.082;37.926;2022-12-10T05:26:01;9.80;;;6.37;;
71696;SDS011;59528;59.082;37.926;2022-12-10T05:28:27;12.27;;;6.70;;
71696;SDS011;59528;59.082;37.926;2022-12-10T05:30:52;11.33;;;6.20;;
71696;SDS011;59528;59.082;37.926;2022-12-10T05:33:18;14.33;;;6.87;;
71696;SDS011;59528;59.082;37.926;2022-12-10T05:35:43;10.57;;;6.63;;
71696;SDS011;59528;59.082;37.926;2022-12-10T05:38:09;11.97;;;6.80;;
71696;SDS011;59528;59.082;37.926;2022-12-10T05:40:35;11.67;;;6.80;;
71696;SDS011;59528;59.082;37.926;2022-12-10T05:43:04;11.03;;;5.97;;
71696;SDS011;59528;59.082;37.926;2022-12-10T05:45:33;11.67;;;6.53;;
71696;SDS011;59528;59.082;37.926;2022-12-10T05:47:59;11.43;;;6.70;;
71696;SDS011;59528;59.082;37.926;2022-12-10T05:50:24;9.60;;;6.00;;
71696;SDS011;59528;59.082;37.926;2022-12-10T05:52:51;11.90;;;6.57;;
71696;SDS011;59528;59.082;37.926;2022-12-10T05:55:17;12.50;;;6.47;;
71696;SDS011;59528;59.082;37.926;2022-12-10T05:57:42;11.00;;;6.13;;
71696;SDS011;59528;59.082;37.926;2022-12-10T06:00:08;12.83;;;6.20;;
71696;SDS011;59528;59.082;37.926;2022-12-10T06:02:37;11.00;;;6.27;;
71696;SDS011;59528;59.082;37.926;2022-12-10T06:05:03;11.33;;;5.97;;
71696;SDS011;59528;59.082;37.926;2022-12-10T06:07:29;9.43;;;6.60;;
71696;SDS011;59528;59.082;37.926;2022-12-10T06:09:55;13.47;;;6.30;;
71696;SDS011;59528;59.082;37.926;2022-12-10T06:12:21;13.93;;;6.60;;
71696;SDS011;59528;59.082;37.926;2022-12-10T06:14:46;10.83;;;6.23;;
71696;SDS011;59528;59.082;37.926;2022-12-10T06:17:12;13.67;;;6.70;;
71696;SDS011;59528;59.082;37.926;2022-12-10T06:19:37;12.80;;;6.67;;
71696;SDS011;59528;59.082;37.926;2022-12-10T06:22:03;10.07;;;6.23;;
71696;SDS011;59528;59.082;37.926;2022-12-10T06:24:29;13.40;;;6.30;;
71696;SDS011;59528;59.082;37.926;2022-12-10T06:26:54;11.53;;;6.50;;
71696;SDS011;59528;59.082;37.926;2022-12-10T06:29:20;11.33;;;6.43;;
71696;SDS011;59528;59.082;37.926;2022-12-10T06:31:45;12.27;;;6.33;;
71696;SDS011;59528;59.082;37.926;2022-12-10T06:34:14;13.17;;;6.70;;
71696;SDS011;59528;59.082;37.926;2022-12-10T06:36:39;12.47;;;6.57;;
71696;SDS011;59528;59.082;37.926;2022-12-10T06:39:05;9.57;;;5.73;;
71696;SDS011;59528;59.082;37.926;2022-12-10T06:41:30;12.00;;;6.67;;
71696;SDS011;59528;59.082;37.926;2022-12-10T06:43:56;10.90;;;6.77;;
71696;SDS011;59528;59.082;37.926;2022-12-10T06:46:27;13.37;;;7.17;;
71696;SDS011;59528;59.082;37.926;2022-12-10T06:48:53;12.73;;;5.90;;
71696;SDS011;59528;59.082;37.926;2022-12-10T06:51:19;11.63;;;6.50;;
71696;SDS011;59528;59.082;37.926;2022-12-10T06:53:44;11.03;;;6.30;;
71696;SDS011;59528;59.082;37.926;2022-12-10T06:56:11;11.10;;;6.67;;
71696;SDS011;59528;59.082;37.926;2022-12-10T06:58:37;11.90;;;6.20;;
71696;SDS011;59528;59.082;37.926;2022-12-10T07:01:06;12.47;;;6.63;;
71696;SDS011;59528;59.082;37.926;2022-12-10T07:03:32;12.03;;;6.27;;
71696;SDS011;59528;59.082;37.926;2022-12-10T07:05:58;11.87;;;6.73;;
71696;SDS011;59528;59.082;37.926;2022-12-10T07:08:24;12.10;;;6.50;;
71696;SDS011;59528;59.082;37.926;2022-12-10T07:10:50;10.60;;;6.30;;
71696;SDS011;59528;59.082;37.926;2022-12-10T07:13:16;11.00;;;6.33;;
71696;SDS011;59528;59.082;37.926;2022-12-10T07:15:44;9.60;;;6.23;;
71696;SDS011;59528;59.082;37.926;2022-12-10T07:18:09;9.40;;;5.90;;
71696;SDS011;59528;59.082;37.926;2022-12-10T07:20:35;11.67;;;6.20;;
71696;SDS011;59528;59.082;37.926;2022-12-10T07:23:00;12.03;;;5.90;;
71696;SDS011;59528;59.082;37.926;2022-12-10T07:25:26;9.37;;;5.77;;
71696;SDS011;59528;59.082;37.926;2022-12-10T07:27:52;10.87;;;5.93;;
71696;SDS011;59528;59.082;37.926;2022-12-10T07:30:18;9.87;;;5.40;;
71696;SDS011;59528;59.082;37.926;2022-12-10T07:32:43;9.40;;;5.73;;
71696;SDS011;59528;59.082;37.926;2022-12-10T07:35:09;10.57;;;5.53;;
71696;SDS011;59528;59.082;37.926;2022-12-10T07:37:34;10.40;;;5.40;;
71696;SDS011;59528;59.082;37.926;2022-12-10T07:40:00;11.97;;;5.40;;
71696;SDS011;59528;59.082;37.926;2022-12-10T07:42:26;10.40;;;5.50;;
71696;SDS011;59528;59.082;37.926;2022-12-10T07:44:51;8.93;;;5.57;;
71696;SDS011;59528;59.082;37.926;2022-12-10T07:47:17;10.60;;;5.47;;
71696;SDS011;59528;59.082;37.926;2022-12-10T07:49:43;10.47;;;5.57;;
71696;SDS011;59528;59.082;37.926;2022-12-10T07:52:08;9.90;;;5.77;;
71696;SDS011;59528;59.082;37.926;2022-12-10T07:54:35;8.50;;;5.20;;
71696;SDS011;59528;59.082;37.926;2022-12-10T07:57:03;8.67;;;5.20;;
71696;SDS011;59528;59.082;37.926;2022-12-10T07:59:28;10.83;;;5.63;;
71696;SDS011;59528;59.082;37.926;2022-12-10T08:01:57;11.97;;;6.00;;
71696;SDS011;59528;59.082;37.926;2022-12-10T08:04:23;10.33;;;5.30;;
71696;SDS011;59528;59.082;37.926;2022-12-10T08:06:48;8.83;;;5.50;;
71696;SDS011;59528;59.082;37.926;2022-12-10T08:09:14;9.67;;;5.60;;
71696;SDS011;59528;59.082;37.926;2022-12-10T08:11:39;8.60;;;5.27;;
71696;SDS011;59528;59.082;37.926;2022-12-10T08:14:05;8.43;;;5.50;;
71696;SDS011;59528;59.082;37.926;2022-12-10T08:16:31;10.20;;;5.60;;
71696;SDS011;59528;59.082;37.926;2022-12-10T08:18:57;10.60;;;5.33;;
71696;SDS011;59528;59.082;37.926;2022-12-10T08:21:29;10.70;;;5.20;;
71696;SDS011;59528;59.082;37.926;2022-12-10T08:23:55;10.47;;;5.50;;
71696;SDS011;59528;59.082;37.926;2022-12-10T08:26:22;8.37;;;5.27;;
71696;SDS011;59528;59.082;37.926;2022-12-10T08:28:48;7.70;;;4.63;;
71696;SDS011;59528;59.082;37.926;2022-12-10T08:31:17;10.17;;;4.87;;
71696;SDS011;59528;59.082;37.926;2022-12-10T08:33:44;8.73;;;5.00;;
71696;SDS011;59528;59.082;37.926;2022-12-10T08:36:10;10.30;;;5.17;;
71696;SDS011;59528;59.082;37.926;2022-12-10T08:38:37;11.17;;;5.20;;
71696;SDS011;59528;59.082;37.926;2022-12-10T08:41:09;8.27;;;5.40;;
71696;SDS011;59528;59.082;37.926;2022-12-10T08:43:35;8.03;;;4.90;;
71696;SDS011;59528;59.082;37.926;2022-12-10T08:46:04;10.93;;;5.63;;
71696;SDS011;59528;59.082;37.926;2022-12-10T08:48:30;8.33;;;5.27;;
71696;SDS011;59528;59.082;37.926;2022-12-10T08:50:56;10.43;;;5.20;;
71696;SDS011;59528;59.082;37.926;2022-12-10T08:53:22;7.00;;;4.83;;
71696;SDS011;59528;59.082;37.926;2022-12-10T08:55:51;8.30;;;5.13;;
71696;SDS011;59528;59.082;37.926;2022-12-10T08:58:16;10.03;;;5.50;;
71696;SDS011;59528;59.082;37.926;2022-12-10T09:00:42;14.73;;;5.83;;
71696;SDS011;59528;59.082;37.926;2022-12-10T09:03:08;8.40;;;5.00;;
71696;SDS011;59528;59.082;37.926;2022-12-10T09:05:34;11.20;;;5.57;;
71696;SDS011;59528;59.082;37.926;2022-12-10T09:07:59;10.23;;;4.93;;
71696;SDS011;59528;59.082;37.926;2022-12-10T09:10:25;9.30;;;5.57;;
71696;SDS011;59528;59.082;37.926;2022-12-10T09:12:52;8.40;;;5.70;;
71696;SDS011;59528;59.082;37.926;2022-12-10T09:15:19;10.37;;;5.37;;
71696;SDS011;59528;59.082;37.926;2022-12-10T09:17:45;10.30;;;5.70;;
71696;SDS011;59528;59.082;37.926;2022-12-10T09:20:12;10.00;;;5.83;;
71696;SDS011;59528;59.082;37.926;2022-12-10T09:22:38;8.97;;;5.60;;
71696;SDS011;59528;59.082;37.926;2022-12-10T09:25:04;9.03;;;5.33;;
71696;SDS011;59528;59.082;37.926;2022-12-10T09:27:30;10.23;;;6.13;;
71696;SDS011;59528;59.082;37.926;2022-12-10T09:29:56;9.37;;;5.33;;
71696;SDS011;59528;59.082;37.926;2022-12-10T09:32:22;10.00;;;5.67;;
71696;SDS011;59528;59.082;37.926;2022-12-10T09:34:50;9.90;;;5.57;;
71696;SDS011;59528;59.082;37.926;2022-12-10T09:37:15;8.83;;;5.30;;
71696;SDS011;59528;59.082;37.926;2022-12-10T09:39:41;9.47;;;5.20;;
71696;SDS011;59528;59.082;37.926;2022-12-10T09:42:16;10.57;;;5.33;;
71696;SDS011;59528;59.082;37.926;2022-12-10T09:47:34;8.27;;;5.20;;
71696;SDS011;59528;59.082;37.926;2022-12-10T09:50:19;9.43;;;5.33;;
71696;SDS011;59528;59.082;37.926;2022-12-10T09:52:46;10.90;;;5.33;;
71696;SDS011;59528;59.082;37.926;2022-12-10T09:55:18;9.40;;;4.93;;
71696;SDS011;59528;59.082;37.926;2022-12-10T09:57:50;8.17;;;5.23;;
71696;SDS011;59528;59.082;37.926;2022-12-10T10:00:18;7.93;;;5.40;;
71696;SDS011;59528;59.082;37.926;2022-12-10T10:02:44;9.37;;;5.63;;
71696;SDS011;59528;59.082;37.926;2022-12-10T10:05:11;9.90;;;5.40;;
71696;SDS011;59528;59.082;37.926;2022-12-10T10:07:43;9.00;;;5.20;;
71696;SDS011;59528;59.082;37.926;2022-12-10T10:10:16;7.87;;;4.47;;
71696;SDS011;59528;59.082;37.926;2022-12-10T10:12:44;9.07;;;5.20;;
71696;SDS011;59528;59.082;37.926;2022-12-10T10:15:12;8.93;;;5.17;;
71696;SDS011;59528;59.082;37.926;2022-12-10T10:17:39;10.20;;;5.13;;
71696;SDS011;59528;59.082;37.926;2022-12-10T10:20:05;7.00;;;4.83;;
71696;SDS011;59528;59.082;37.926;2022-12-10T10:22:30;8.67;;;4.80;;
71696;SDS011;59528;59.082;37.926;2022-12-10T10:24:56;8.07;;;5.00;;
71696;SDS011;59528;59.082;37.926;2022-12-10T10:27:26;8.07;;;4.47;;
71696;SDS011;59528;59.082;37.926;2022-12-10T10:29:54;8.07;;;4.77;;
71696;SDS011;59528;59.082;37.926;2022-12-10T10:32:21;8.03;;;5.03;;
71696;SDS011;59528;59.082;37.926;2022-12-10T10:34:51;9.60;;;4.80;;
71696;SDS011;59528;59.082;37.926;2022-12-10T10:37:28;8.23;;;5.20;;
71696;SDS011;59528;59.082;37.926;2022-12-10T10:39:54;9.27;;;5.27;;
71696;SDS011;59528;59.082;37.926;2022-12-10T10:42:28;9.20;;;4.93;;
71696;SDS011;59528;59.082;37.926;2022-12-10T10:44:57;12.33;;;4.63;;
71696;SDS011;59528;59.082;37.926;2022-12-10T10:47:31;7.10;;;4.50;;
71696;SDS011;59528;59.082;37.926;2022-12-10T10:49:57;10.30;;;5.17;;
71696;SDS011;59528;59.082;37.926;2022-12-10T10:52:25;8.97;;;4.90;;
71696;SDS011;59528;59.082;37.926;2022-12-10T10:54:53;9.70;;;4.80;;
71696;SDS011;59528;59.082;37.926;2022-12-10T10:59:44;8.73;;;5.20;;
71696;SDS011;59528;59.082;37.926;2022-12-10T11:04:54;8.60;;;4.90;;
71696;SDS011;59528;59.082;37.926;2022-12-10T11:09:55;6.73;;;4.67;;
71696;SDS011;59528;59.082;37.926;2022-12-10T11:12:39;7.87;;;4.93;;
71696;SDS011;59528;59.082;37.926;2022-12-10T11:17:51;7.20;;;4.63;;
71696;SDS011;59528;59.082;37.926;2022-12-10T11:22:52;7.60;;;4.97;;
71696;SDS011;59528;59.082;37.926;2022-12-10T11:25:19;8.20;;;4.73;;
71696;SDS011;59528;59.082;37.926;2022-12-10T11:27:53;7.57;;;4.53;;
71696;SDS011;59528;59.082;37.926;2022-12-10T11:30:22;7.77;;;4.53;;
71696;SDS011;59528;59.082;37.926;2022-12-10T11:35:35;11.43;;;5.17;;
71696;SDS011;59528;59.082;37.926;2022-12-10T11:40:38;9.20;;;5.30;;
71696;SDS011;59528;59.082;37.926;2022-12-10T11:46:07;10.73;;;5.63;;
71696;SDS011;59528;59.082;37.926;2022-12-10T11:51:06;8.70;;;4.93;;
71696;SDS011;59528;59.082;37.926;2022-12-10T11:53:39;9.30;;;5.77;;
71696;SDS011;59528;59.082;37.926;2022-12-10T11:56:16;8.97;;;5.13;;
71696;SDS011;59528;59.082;37.926;2022-12-10T12:14:16;10.67;;;5.23;;
71696;SDS011;59528;59.082;37.926;2022-12-10T12:16:47;9.73;;;5.00;;
71696;SDS011;59528;59.082;37.926;2022-12-10T12:19:14;8.73;;;5.13;;
71696;SDS011;59528;59.082;37.926;2022-12-10T12:21:42;7.83;;;4.63;;
71696;SDS011;59528;59.082;37.926;2022-12-10T12:26:59;8.30;;;5.47;;
71696;SDS011;59528;59.082;37.926;2022-12-10T12:29:27;7.67;;;5.07;;
71696;SDS011;59528;59.082;37.926;2022-12-10T12:34:36;8.53;;;4.80;;
71696;SDS011;59528;59.082;37.926;2022-12-10T12:37:03;8.20;;;4.97;;
71696;SDS011;59528;59.082;37.926;2022-12-10T12:39:32;9.93;;;5.53;;
71696;SDS011;59528;59.082;37.926;2022-12-10T12:42:01;9.77;;;5.43;;
71696;SDS011;59528;59.082;37.926;2022-12-10T12:47:20;8.83;;;5.43;;
71696;SDS011;59528;59.082;37.926;2022-12-10T12:49:47;9.27;;;5.33;;
71696;SDS011;59528;59.082;37.926;2022-12-10T12:54:51;11.20;;;5.77;;
71696;SDS011;59528;59.082;37.926;2022-12-10T13:04:55;8.37;;;5.17;;
71696;SDS011;59528;59.082;37.926;2022-12-10T13:09:48;9.33;;;5.73;;
71696;SDS011;59528;59.082;37.926;2022-12-10T13:19:42;9.93;;;5.67;;
71696;SDS011;59528;59.082;37.926;2022-12-10T13:22:12;10.20;;;5.40;;
71696;SDS011;59528;59.082;37.926;2022-12-10T13:27:35;10.90;;;5.73;;
71696;SDS011;59528;59.082;37.926;2022-12-10T13:30:03;8.50;;;5.30;;
71696;SDS011;59528;59.082;37.926;2022-12-10T13:37:32;11.20;;;5.87;;
71696;SDS011;59528;59.082;37.926;2022-12-10T13:40:41;9.63;;;5.47;;
71696;SDS011;59528;59.082;37.926;2022-12-10T13:42:54;9.97;;;5.23;;
71696;SDS011;59528;59.082;37.926;2022-12-10T13:45:39;9.03;;;5.33;;
71696;SDS011;59528;59.082;37.926;2022-12-10T14:08:28;9.13;;;5.33;;
71696;SDS011;59528;59.082;37.926;2022-12-10T14:10:56;9.20;;;5.17;;
71696;SDS011;59528;59.082;37.926;2022-12-10T14:13:26;9.40;;;5.07;;
71696;SDS011;59528;59.082;37.926;2022-12-10T14:15:56;10.07;;;5.00;;
71696;SDS011;59528;59.082;37.926;2022-12-10T14:18:24;7.30;;;4.10;;
71696;SDS011;59528;59.082;37.926;2022-12-10T14:20:52;11.13;;;5.77;;
71696;SDS011;59528;59.082;37.926;2022-12-10T14:28:31;8.67;;;4.90;;
71696;SDS011;59528;59.082;37.926;2022-12-10T14:30:58;7.77;;;5.20;;
71696;SDS011;59528;59.082;37.926;2022-12-10T14:33:24;8.47;;;5.07;;
71696;SDS011;59528;59.082;37.926;2022-12-10T14:35:51;8.83;;;5.03;;
71696;SDS011;59528;59.082;37.926;2022-12-10T14:38:21;8.10;;;4.80;;
71696;SDS011;59528;59.082;37.926;2022-12-10T14:40:48;9.57;;;4.60;;
71696;SDS011;59528;59.082;37.926;2022-12-10T14:43:16;8.77;;;4.77;;
71696;SDS011;59528;59.082;37.926;2022-12-10T14:48:16;7.93;;;4.93;;
71696;SDS011;59528;59.082;37.926;2022-12-10T14:50:44;8.10;;;4.53;;
71696;SDS011;59528;59.082;37.926;2022-12-10T14:53:18;6.50;;;4.07;;
71696;SDS011;59528;59.082;37.926;2022-12-10T14:55:45;8.07;;;4.47;;
71696;SDS011;59528;59.082;37.926;2022-12-10T14:58:17;9.83;;;4.80;;
71696;SDS011;59528;59.082;37.926;2022-12-10T15:00:44;7.37;;;4.27;;
71696;SDS011;59528;59.082;37.926;2022-12-10T15:03:10;7.50;;;4.30;;
71696;SDS011;59528;59.082;37.926;2022-12-10T15:05:36;6.20;;;4.10;;
71696;SDS011;59528;59.082;37.926;2022-12-10T15:08:04;6.63;;;3.97;;
71696;SDS011;59528;59.082;37.926;2022-12-10T15:10:34;6.80;;;4.23;;
71696;SDS011;59528;59.082;37.926;2022-12-10T15:13:00;6.63;;;3.97;;
71696;SDS011;59528;59.082;37.926;2022-12-10T15:15:30;7.10;;;4.67;;
71696;SDS011;59528;59.082;37.926;2022-12-10T15:28:23;8.53;;;4.70;;
71696;SDS011;59528;59.082;37.926;2022-12-10T15:30:49;9.17;;;4.37;;
71696;SDS011;59528;59.082;37.926;2022-12-10T15:33:24;9.00;;;4.23;;
71696;SDS011;59528;59.082;37.926;2022-12-10T15:35:53;7.90;;;4.10;;
71696;SDS011;59528;59.082;37.926;2022-12-10T15:38:19;8.20;;;4.10;;
71696;SDS011;59528;59.082;37.926;2022-12-10T15:40:44;7.67;;;4.20;;
71696;SDS011;59528;59.082;37.926;2022-12-10T15:43:11;7.53;;;4.90;;
71696;SDS011;59528;59.082;37.926;2022-12-10T15:45:39;7.80;;;4.63;;
71696;SDS011;59528;59.082;37.926;2022-12-10T15:48:12;5.63;;;3.87;;
71696;SDS011;59528;59.082;37.926;2022-12-10T15:50:38;7.50;;;4.47;;
71696;SDS011;59528;59.082;37.926;2022-12-10T15:53:04;8.10;;;4.30;;
71696;SDS011;59528;59.082;37.926;2022-12-10T15:55:32;6.20;;;4.17;;
71696;SDS011;59528;59.082;37.926;2022-12-10T15:57:58;7.50;;;4.07;;
71696;SDS011;59528;59.082;37.926;2022-12-10T16:00:24;9.53;;;3.97;;
71696;SDS011;59528;59.082;37.926;2022-12-10T16:07:48;8.63;;;4.53;;
71696;SDS011;59528;59.082;37.926;2022-12-10T16:10:15;8.77;;;4.67;;
71696;SDS011;59528;59.082;37.926;2022-12-10T16:12:42;8.30;;;4.00;;
71696;SDS011;59528;59.082;37.926;2022-12-10T16:15:10;8.57;;;4.23;;
71696;SDS011;59528;59.082;37.926;2022-12-10T16:17:37;7.87;;;4.60;;
71696;SDS011;59528;59.082;37.926;2022-12-10T16:22:37;7.57;;;4.50;;
71696;SDS011;59528;59.082;37.926;2022-12-10T16:25:03;8.63;;;4.27;;
71696;SDS011;59528;59.082;37.926;2022-12-10T16:27:29;6.77;;;4.13;;
71696;SDS011;59528;59.082;37.926;2022-12-10T16:29:59;8.03;;;4.80;;
71696;SDS011;59528;59.082;37.926;2022-12-10T16:32:25;6.93;;;4.23;;
71696;SDS011;59528;59.082;37.926;2022-12-10T16:34:51;7.13;;;3.93;;
71696;SDS011;59528;59.082;37.926;2022-12-10T16:37:17;9.33;;;4.60;;
71696;SDS011;59528;59.082;37.926;2022-12-10T16:39:43;8.67;;;5.00;;
71696;SDS011;59528;59.082;37.926;2022-12-10T16:42:14;8.03;;;4.27;;
71696;SDS011;59528;59.082;37.926;2022-12-10T16:44:40;7.73;;;4.60;;
71696;SDS011;59528;59.082;37.926;2022-12-10T16:47:12;7.93;;;4.80;;
71696;SDS011;59528;59.082;37.926;2022-12-10T16:49:38;7.73;;;4.20;;
71696;SDS011;59528;59.082;37.926;2022-12-10T16:52:03;8.03;;;5.27;;
71696;SDS011;59528;59.082;37.926;2022-12-10T16:54:29;8.23;;;5.07;;